Time;durP1;ratioP1;P1;durP2;ratioP2;P2;SDS_P1;SDS_P2;PMS_P1;PMS_P2;Temp;Humidity;BMP_temperature;BMP_pressure;BME280_temperature;BME280_humidity;BME280_pressure;Samples;Min_cycle;Max_cycle;Signal;HPM_P1;HPM_P2
2021/12/10 00:01:13;;;;;;;13.50;6.35;;;7.30;58.80;;;;;;6115022;23;20458;-54
2021/12/10 00:03:47;;;;;;;9.90;5.80;;;7.30;58.70;;;;;;6125980;23;20014;-53
2021/12/10 00:06:27;;;;;;;9.30;5.38;;;7.30;58.70;;;;;;6124754;23;20002;-54
2021/12/10 00:08:59;;;;;;;8.52;5.00;;;7.30;58.60;;;;;;6115472;23;20036;-53
2021/12/10 00:11:47;;;;;;;7.95;5.20;;;7.30;58.50;;;;;;6116986;23;20273;-53
2021/12/10 00:14:15;;;;;;;10.25;5.40;;;7.20;58.50;;;;;;6125850;23;20010;-48
2021/12/10 00:16:43;;;;;;;12.20;4.97;;;7.20;58.50;;;;;;6114696;23;20020;-54
2021/12/10 00:19:24;;;;;;;7.30;4.45;;;7.20;58.50;;;;;;6115946;23;20332;-50
2021/12/10 00:21:52;;;;;;;7.60;4.10;;;7.20;58.50;;;;;;6125172;23;20005;-54
2021/12/10 00:24:20;;;;;;;10.18;5.57;;;7.20;58.50;;;;;;6115260;23;20006;-53
2021/12/10 00:26:47;;;;;;;9.73;4.63;;;7.10;58.50;;;;;;6124102;23;20002;-52
2021/12/10 00:29:15;;;;;;;11.48;4.88;;;7.10;58.60;;;;;;6113079;23;20006;-53
2021/12/10 00:31:49;;;;;;;7.35;4.10;;;7.00;58.60;;;;;;6111545;23;20002;-53
2021/12/10 00:34:31;;;;;;;7.80;4.20;;;7.00;58.70;;;;;;6112870;23;20002;-52
2021/12/10 00:37:01;;;;;;;8.88;4.28;;;7.00;58.80;;;;;;6113998;23;20072;-53
2021/12/10 00:39:31;;;;;;;10.30;4.15;;;7.00;58.80;;;;;;6110854;23;20676;-52
2021/12/10 00:42:00;;;;;;;11.15;5.05;;;6.90;58.90;;;;;;6114175;23;20424;-52
2021/12/10 00:44:26;;;;;;;8.65;4.60;;;6.90;59.00;;;;;;6133951;23;20015;-54
2021/12/10 00:46:53;;;;;;;11.07;4.93;;;6.90;59.10;;;;;;6114551;23;20002;-52
2021/12/10 00:49:19;;;;;;;13.15;5.28;;;6.90;59.20;;;;;;6116194;23;19998;-51
2021/12/10 00:51:47;;;;;;;11.80;4.80;;;6.90;59.30;;;;;;6116049;23;20249;-52
2021/12/10 00:54:13;;;;;;;14.77;5.35;;;6.90;59.40;;;;;;6114151;23;20367;-51
2021/12/10 00:56:41;;;;;;;14.10;5.15;;;6.90;59.60;;;;;;6114539;23;20002;-52
2021/12/10 00:59:09;;;;;;;12.18;5.30;;;6.90;59.70;;;;;;6115789;23;19998;-51
2021/12/10 01:01:36;;;;;;;10.85;5.10;;;6.90;59.80;;;;;;6113331;23;20013;-51
2021/12/10 01:04:20;;;;;;;10.88;4.40;;;6.90;60.00;;;;;;6112876;23;20339;-52
2021/12/10 01:06:48;;;;;;;12.90;4.87;;;7.00;60.00;;;;;;6121721;23;20416;-53
2021/12/10 01:09:23;;;;;;;12.02;4.13;;;7.00;59.90;;;;;;6114298;23;20062;-52
2021/12/10 01:11:54;;;;;;;11.15;4.30;;;7.10;59.90;;;;;;6125004;23;19998;-55
2021/12/10 01:14:54;;;;;;;9.25;3.70;;;7.10;59.90;;;;;;6113505;23;20502;-55
2021/12/10 01:25:54;;;;;;;15.40;3.25;;;7.20;59.40;;;;;;6125178;23;20009;-54
2021/12/10 01:28:20;;;;;;;14.27;3.53;;;7.30;59.20;;;;;;6123091;23;20010;-53
2021/12/10 01:30:47;;;;;;;17.08;2.97;;;7.30;59.10;;;;;;6113711;23;20037;-51
2021/12/10 01:33:18;;;;;;;8.30;2.90;;;7.30;59.10;;;;;;6113347;23;20002;-55
2021/12/10 01:35:51;;;;;;;8.55;2.45;;;7.30;59.00;;;;;;6114537;23;20002;-54
2021/12/10 01:38:18;;;;;;;18.23;3.08;;;7.30;59.00;;;;;;6115542;23;20005;-49
2021/12/10 01:40:48;;;;;;;10.48;2.63;;;7.40;59.00;;;;;;6115821;23;20002;-53
2021/12/10 01:43:23;;;;;;;14.10;2.72;;;7.40;58.80;;;;;;6111426;23;20311;-53
2021/12/10 01:46:06;;;;;;;18.05;2.78;;;7.40;58.70;;;;;;6123672;23;20002;-50
2021/12/10 01:48:45;;;;;;;9.07;3.33;;;7.40;58.60;;;;;;6124084;23;19998;-54
2021/12/10 01:51:16;;;;;;;10.65;2.20;;;7.50;58.60;;;;;;6124007;23;20013;-54
2021/12/10 01:53:45;;;;;;;12.25;2.50;;;7.50;58.50;;;;;;6124157;23;19998;-55
2021/12/10 01:56:15;;;;;;;16.65;2.40;;;7.50;58.20;;;;;;6115250;23;20013;-53
2021/12/10 01:58:42;;;;;;;12.38;2.20;;;7.50;58.00;;;;;;6113326;23;20013;-53
2021/12/10 02:01:16;;;;;;;12.43;2.58;;;7.60;58.00;;;;;;6114370;23;20002;-52
2021/12/10 02:03:45;;;;;;;11.63;2.20;;;7.50;57.60;;;;;;6123747;23;19998;-55
2021/12/10 02:06:13;;;;;;;9.52;1.88;;;7.60;57.60;;;;;;6115641;23;20013;-51
2021/12/10 02:08:40;;;;;;;20.60;2.47;;;7.60;57.60;;;;;;6115192;23;20013;-51
2021/12/10 02:11:06;;;;;;;8.88;1.80;;;7.60;57.50;;;;;;6115415;23;20025;-52
2021/12/10 02:13:33;;;;;;;9.95;1.77;;;7.60;57.50;;;;;;6114232;23;20320;-50
2021/12/10 02:15:59;;;;;;;9.70;1.80;;;7.60;57.40;;;;;;6114082;23;20002;-53
2021/12/10 02:18:26;;;;;;;7.68;2.13;;;7.60;57.40;;;;;;6136868;23;19998;-57
2021/12/10 02:21:14;;;;;;;9.73;2.03;;;7.60;57.40;;;;;;6115155;23;20017;-51
2021/12/10 02:23:45;;;;;;;20.77;2.65;;;7.60;57.40;;;;;;6113662;23;20016;-53
2021/12/10 02:26:14;;;;;;;10.63;2.28;;;7.60;57.40;;;;;;6112599;23;20018;-54
2021/12/10 02:28:41;;;;;;;10.73;2.90;;;7.60;57.40;;;;;;6112286;23;20407;-52
2021/12/10 02:31:09;;;;;;;11.02;2.28;;;7.60;57.50;;;;;;6113760;23;20002;-53
2021/12/10 02:33:36;;;;;;;11.98;2.22;;;7.60;57.40;;;;;;6113960;23;19994;-54
2021/12/10 02:36:03;;;;;;;10.13;1.98;;;7.50;57.40;;;;;;6113810;23;19994;-55
2021/12/10 02:38:30;;;;;;;8.23;1.70;;;7.50;57.30;;;;;;6110993;23;20106;-53
2021/12/10 02:40:56;;;;;;;13.07;2.00;;;7.50;57.20;;;;;;6115412;23;20001;-51
2021/12/10 02:43:24;;;;;;;8.32;1.55;;;7.40;57.20;;;;;;6113362;23;20009;-51
2021/12/10 02:45:55;;;;;;;12.85;1.95;;;7.40;57.20;;;;;;6113679;23;20005;-54
2021/12/10 02:48:23;;;;;;;10.48;2.08;;;7.40;57.20;;;;;;6122974;23;20013;-50
2021/12/10 02:50:52;;;;;;;9.13;1.50;;;7.40;57.20;;;;;;6114802;23;20288;-52
2021/12/10 02:53:27;;;;;;;12.35;2.38;;;7.40;57.20;;;;;;6114069;23;20014;-55
2021/12/10 02:56:05;;;;;;;8.75;1.70;;;7.30;57.20;;;;;;6125063;23;20002;-52
2021/12/10 02:58:31;;;;;;;10.63;1.88;;;7.30;57.20;;;;;;6114223;23;20108;-52
2021/12/10 03:01:04;;;;;;;9.15;1.98;;;7.30;57.20;;;;;;6115189;23;20006;-52
2021/12/10 03:03:30;;;;;;;12.85;2.25;;;7.30;57.20;;;;;;6114627;23;20026;-49
2021/12/10 03:05:57;;;;;;;10.70;1.70;;;7.30;57.20;;;;;;6114904;23;20465;-51
2021/12/10 03:08:24;;;;;;;13.00;1.95;;;7.20;57.20;;;;;;6113249;23;20017;-52
2021/12/10 03:10:50;;;;;;;8.80;1.75;;;7.20;57.30;;;;;;6115269;23;20006;-54
2021/12/10 03:13:16;;;;;;;11.48;1.83;;;7.20;57.30;;;;;;6112555;23;20006;-54
2021/12/10 03:15:43;;;;;;;14.40;1.45;;;7.20;57.40;;;;;;6112471;23;20281;-56
2021/12/10 03:18:14;;;;;;;10.82;1.83;;;7.10;57.50;;;;;;6113898;23;20232;-51
2021/12/10 03:20:41;;;;;;;7.65;1.63;;;7.10;57.70;;;;;;6124062;23;20494;-52
2021/12/10 03:23:08;;;;;;;7.82;1.55;;;7.10;57.80;;;;;;6115988;23;20487;-53
2021/12/10 03:25:35;;;;;;;11.50;1.80;;;7.10;57.80;;;;;;6114412;23;19998;-53
2021/12/10 03:28:03;;;;;;;9.68;1.90;;;7.10;57.70;;;;;;6117102;23;20014;-49
2021/12/10 03:30:34;;;;;;;10.45;1.50;;;7.10;57.70;;;;;;6116411;23;20021;-50
2021/12/10 03:33:00;;;;;;;6.43;1.35;;;7.10;57.60;;;;;;6115059;23;20005;-52
2021/12/10 03:35:33;;;;;;;7.15;1.67;;;7.20;57.70;;;;;;6114975;23;20009;-53
2021/12/10 03:38:03;;;;;;;11.75;1.90;;;7.20;57.60;;;;;;6126546;23;20054;-54
2021/12/10 03:40:31;;;;;;;9.73;1.77;;;7.10;57.50;;;;;;6116409;23;20009;-53
2021/12/10 03:42:58;;;;;;;6.03;1.63;;;7.20;57.50;;;;;;6116017;23;20335;-54
2021/12/10 03:45:28;;;;;;;10.82;2.03;;;7.10;57.50;;;;;;6113890;23;20017;-54
2021/12/10 03:47:54;;;;;;;10.98;2.30;;;7.10;57.40;;;;;;6086492;23;20514;-54
2021/12/10 03:50:28;;;;;;;9.10;1.58;;;7.10;57.40;;;;;;6115326;23;20014;-52
2021/12/10 03:52:54;;;;;;;9.20;2.00;;;7.00;57.30;;;;;;6114139;23;20213;-55
2021/12/10 03:55:22;;;;;;;10.52;1.88;;;7.00;57.40;;;;;;6116736;23;20002;-51
2021/12/10 03:57:51;;;;;;;7.15;1.80;;;7.00;57.40;;;;;;6116382;23;20002;-54
2021/12/10 04:00:19;;;;;;;11.88;2.53;;;7.00;57.40;;;;;;6115625;23;20328;-54
2021/12/10 04:02:46;;;;;;;9.57;2.35;;;6.90;57.30;;;;;;6115649;23;20335;-55
2021/12/10 04:05:13;;;;;;;7.53;2.22;;;6.90;57.40;;;;;;6114532;23;20017;-49
2021/12/10 04:07:40;;;;;;;6.07;2.10;;;6.90;57.50;;;;;;6116256;23;20336;-51
2021/12/10 04:10:11;;;;;;;11.15;3.00;;;6.90;57.70;;;;;;6126938;23;20006;-49
2021/12/10 04:12:37;;;;;;;8.73;2.70;;;6.90;57.80;;;;;;6116652;23;20017;-55
2021/12/10 04:15:06;;;;;;;9.43;2.78;;;6.90;57.80;;;;;;6112854;23;20005;-54
2021/12/10 04:17:32;;;;;;;9.88;2.75;;;6.90;57.80;;;;;;6112901;23;20009;-55
2021/12/10 04:19:59;;;;;;;11.77;2.72;;;7.00;57.90;;;;;;6116721;23;20010;-51
2021/12/10 04:22:32;;;;;;;9.65;2.35;;;7.00;57.90;;;;;;6117213;23;20347;-53
2021/12/10 04:25:06;;;;;;;12.98;2.85;;;7.00;57.90;;;;;;6114044;23;20006;-52
2021/12/10 04:27:33;;;;;;;11.23;2.85;;;7.00;57.80;;;;;;6111604;23;20021;-53
2021/12/10 04:29:59;;;;;;;12.75;2.72;;;7.00;57.80;;;;;;6112683;23;20080;-52
2021/12/10 04:32:27;;;;;;;16.23;3.05;;;7.00;57.70;;;;;;6136811;23;19998;-53
2021/12/10 04:34:54;;;;;;;13.52;3.10;;;7.00;57.70;;;;;;6115232;23;20009;-53
2021/12/10 04:37:21;;;;;;;14.18;3.05;;;7.00;57.60;;;;;;6117031;23;20663;-52
2021/12/10 04:39:48;;;;;;;11.48;2.75;;;7.00;57.60;;;;;;6088727;23;20177;-53
2021/12/10 04:42:23;;;;;;;11.55;2.17;;;7.00;57.50;;;;;;6115306;23;20013;-54
2021/12/10 04:44:55;;;;;;;18.73;6.88;;;7.00;57.40;;;;;;6124572;23;19994;-53
2021/12/10 04:47:21;;;;;;;22.23;8.15;;;7.00;57.40;;;;;;6113576;23;20150;-54
2021/12/10 04:49:48;;;;;;;20.08;5.00;;;7.00;57.30;;;;;;6115630;23;20009;-52
2021/12/10 04:52:14;;;;;;;9.13;2.47;;;7.00;57.30;;;;;;6113273;23;20339;-53
2021/12/10 04:54:41;;;;;;;10.80;2.35;;;7.00;57.30;;;;;;6114792;23;20002;-50
2021/12/10 04:57:08;;;;;;;9.80;2.10;;;7.00;57.40;;;;;;6110846;23;20005;-53
2021/12/10 04:59:37;;;;;;;15.02;2.53;;;7.00;57.40;;;;;;6116387;23;20416;-54
2021/12/10 05:02:07;;;;;;;10.13;2.08;;;7.00;57.40;;;;;;6113338;23;20006;-55
2021/12/10 05:04:34;;;;;;;10.20;2.33;;;7.00;57.40;;;;;;6115955;23;20029;-50
2021/12/10 05:07:03;;;;;;;10.63;2.33;;;6.90;57.50;;;;;;6116222;23;20002;-54
2021/12/10 05:09:29;;;;;;;15.35;2.47;;;6.90;57.60;;;;;;6115882;23;20447;-51
2021/12/10 05:11:57;;;;;;;16.40;2.65;;;7.00;57.60;;;;;;6115280;23;20009;-53
2021/12/10 05:14:24;;;;;;;10.35;2.55;;;7.00;57.70;;;;;;6114961;23;20005;-53
2021/12/10 05:16:52;;;;;;;11.90;2.53;;;7.00;57.70;;;;;;6108677;23;20009;-54
2021/12/10 05:19:22;;;;;;;13.50;3.95;;;7.00;57.70;;;;;;6112618;23;20424;-53
2021/12/10 05:21:50;;;;;;;14.85;3.30;;;7.00;57.70;;;;;;6115439;23;20006;-50
2021/12/10 05:24:17;;;;;;;13.30;2.80;;;7.00;57.70;;;;;;6113679;23;20319;-53
2021/12/10 05:26:45;;;;;;;11.27;2.67;;;7.00;57.70;;;;;;6114756;23;20006;-53
2021/12/10 05:29:13;;;;;;;10.65;2.20;;;7.00;57.60;;;;;;6113790;23;20415;-52
2021/12/10 05:31:43;;;;;;;9.52;2.20;;;7.00;57.50;;;;;;6112336;23;20017;-51
2021/12/10 05:34:10;;;;;;;9.88;2.30;;;7.00;57.50;;;;;;6115060;23;19998;-54
2021/12/10 05:36:37;;;;;;;13.13;2.22;;;7.00;57.40;;;;;;6116237;23;20454;-54
2021/12/10 05:39:05;;;;;;;10.85;2.50;;;7.00;57.50;;;;;;6115943;23;20001;-51
2021/12/10 05:41:32;;;;;;;13.77;2.95;;;7.00;57.50;;;;;;6114485;23;20454;-55
2021/12/10 05:43:58;;;;;;;8.50;2.35;;;7.00;57.40;;;;;;6112327;23;20044;-51
2021/12/10 05:46:24;;;;;;;7.70;2.45;;;6.90;57.40;;;;;;6111039;23;20484;-51
2021/12/10 05:48:51;;;;;;;10.30;1.95;;;6.90;57.40;;;;;;6109852;23;20005;-52
2021/12/10 05:51:17;;;;;;;18.02;4.45;;;6.90;57.40;;;;;;6113556;23;20029;-55
2021/12/10 05:53:44;;;;;;;17.75;4.22;;;6.90;57.40;;;;;;6111926;23;20006;-51
2021/12/10 05:56:10;;;;;;;16.30;3.47;;;6.80;57.50;;;;;;6113991;23;20029;-49
2021/12/10 05:58:37;;;;;;;10.82;2.67;;;6.80;57.50;;;;;;6113608;23;20008;-54
2021/12/10 06:01:12;;;;;;;12.63;3.55;;;6.90;57.60;;;;;;6111541;23;20009;-52
2021/12/10 06:03:50;;;;;;;10.27;2.10;;;6.80;57.60;;;;;;6110643;23;20006;-53
2021/12/10 06:06:18;;;;;;;13.73;2.45;;;6.80;57.60;;;;;;6121531;23;20169;-52
2021/12/10 06:08:44;;;;;;;9.25;2.25;;;6.80;57.60;;;;;;6111875;23;20025;-50
2021/12/10 06:11:10;;;;;;;8.75;1.95;;;6.80;57.60;;;;;;6115320;23;20331;-52
2021/12/10 06:13:37;;;;;;;11.35;2.10;;;6.80;57.60;;;;;;6112059;23;20070;-54
2021/12/10 06:16:04;;;;;;;14.23;2.55;;;6.80;57.50;;;;;;6111646;23;20002;-53
2021/12/10 06:18:30;;;;;;;10.40;1.98;;;6.90;57.50;;;;;;6115089;23;20303;-51
2021/12/10 06:20:57;;;;;;;39.13;14.02;;;6.80;57.50;;;;;;6107892;23;20527;-52
2021/12/10 06:23:24;;;;;;;30.08;8.13;;;6.80;57.50;;;;;;6122520;23;20009;-54
2021/12/10 06:25:50;;;;;;;13.85;3.60;;;6.80;57.50;;;;;;6111108;23;20013;-54
2021/12/10 06:28:18;;;;;;;16.73;3.42;;;6.80;57.50;;;;;;6113896;23;20013;-55
2021/12/10 06:30:46;;;;;;;12.73;2.38;;;6.80;57.50;;;;;;6113193;23;19998;-54
2021/12/10 06:33:16;;;;;;;7.30;2.05;;;6.80;57.50;;;;;;6111625;23;20451;-52
2021/12/10 06:35:47;;;;;;;10.50;2.13;;;6.80;57.50;;;;;;6114639;23;20006;-52
2021/12/10 06:38:13;;;;;;;7.90;2.10;;;6.80;57.50;;;;;;6123815;23;19998;-52
2021/12/10 06:40:42;;;;;;;12.43;2.55;;;6.80;57.50;;;;;;6115471;23;20005;-52
2021/12/10 06:43:10;;;;;;;10.85;2.50;;;6.80;57.40;;;;;;6113089;23;20044;-54
2021/12/10 06:45:38;;;;;;;14.32;2.47;;;6.80;57.40;;;;;;6113110;23;20010;-53
2021/12/10 06:48:07;;;;;;;9.27;2.08;;;6.80;57.40;;;;;;6112438;23;20002;-54
2021/12/10 06:50:40;;;;;;;10.07;1.95;;;6.80;57.40;;;;;;6111381;23;20428;-54
2021/12/10 06:53:07;;;;;;;8.40;1.88;;;6.70;57.30;;;;;;6123291;23;19997;-54
2021/12/10 06:55:34;;;;;;;14.23;2.83;;;6.80;57.40;;;;;;6112990;23;20028;-56
2021/12/10 06:58:01;;;;;;;15.57;2.70;;;6.70;57.30;;;;;;6114178;23;20430;-50
2021/12/10 07:00:53;;;;;;;9.63;2.17;;;6.70;57.30;;;;;;6114103;23;20006;-54
2021/12/10 07:03:26;;;;;;;10.30;1.90;;;6.70;57.30;;;;;;6108757;23;20308;-53
2021/12/10 07:05:54;;;;;;;11.55;2.30;;;6.70;57.30;;;;;;6114276;23;20017;-55
2021/12/10 07:08:23;;;;;;;10.52;2.20;;;6.70;57.30;;;;;;6114934;23;20447;-53
2021/12/10 07:10:49;;;;;;;10.25;2.10;;;6.70;57.40;;;;;;6114791;23;20002;-54
2021/12/10 07:13:16;;;;;;;10.13;2.05;;;6.60;57.30;;;;;;6113388;23;20021;-48
2021/12/10 07:15:46;;;;;;;13.75;2.50;;;6.60;57.40;;;;;;6114759;23;20372;-50
2021/12/10 07:18:12;;;;;;;7.47;1.67;;;6.60;57.40;;;;;;6111643;23;20006;-51
2021/12/10 07:20:41;;;;;;;17.02;2.95;;;6.60;57.50;;;;;;6135135;23;20006;-50
2021/12/10 07:23:07;;;;;;;13.15;2.08;;;6.50;57.50;;;;;;6111325;23;20002;-55
2021/12/10 07:25:34;;;;;;;15.48;2.25;;;6.50;57.50;;;;;;6112268;23;20729;-53
2021/12/10 07:28:00;;;;;;;12.82;2.55;;;6.50;57.50;;;;;;6087133;23;20006;-54
2021/12/10 07:30:27;;;;;;;12.50;2.83;;;6.50;57.60;;;;;;6113581;23;20010;-55
2021/12/10 07:32:54;;;;;;;20.50;3.33;;;6.50;57.60;;;;;;6112434;23;20010;-52
2021/12/10 07:35:21;;;;;;;10.85;3.17;;;6.50;57.70;;;;;;6112359;23;20002;-56
2021/12/10 07:37:49;;;;;;;10.15;2.47;;;6.50;57.70;;;;;;6113278;23;19998;-55
2021/12/10 07:40:23;;;;;;;9.23;2.90;;;6.50;57.70;;;;;;6114002;23;19998;-55
2021/12/10 07:42:50;;;;;;;41.78;16.13;;;6.40;57.70;;;;;;6134551;23;20217;-54
2021/12/10 07:45:17;;;;;;;33.67;9.00;;;6.40;57.80;;;;;;6110611;23;19998;-53
2021/12/10 07:47:45;;;;;;;20.70;7.15;;;6.40;57.80;;;;;;6111557;23;20002;-49
2021/12/10 07:50:20;;;;;;;16.70;5.63;;;6.40;57.80;;;;;;6115410;23;20002;-51
2021/12/10 07:52:46;;;;;;;18.23;4.85;;;6.40;57.80;;;;;;6123786;23;20006;-54
2021/12/10 07:55:15;;;;;;;12.07;4.75;;;6.40;57.80;;;;;;6115322;23;20002;-55
2021/12/10 07:57:43;;;;;;;11.32;4.57;;;6.40;57.90;;;;;;6114349;23;20424;-54
2021/12/10 08:00:13;;;;;;;18.33;4.82;;;6.40;57.90;;;;;;6114151;23;20157;-53
2021/12/10 08:02:40;;;;;;;14.95;4.95;;;6.40;57.90;;;;;;6112373;23;20021;-54
2021/12/10 08:05:07;;;;;;;20.35;4.80;;;6.40;57.90;;;;;;6112625;23;20006;-54
2021/12/10 08:07:34;;;;;;;13.82;5.47;;;6.40;57.90;;;;;;6112433;23;20025;-50
2021/12/10 08:10:00;;;;;;;11.20;4.65;;;6.40;57.90;;;;;;6126072;23;20028;-51
2021/12/10 08:12:26;;;;;;;15.23;5.25;;;6.40;58.00;;;;;;6115498;23;20006;-54
2021/12/10 08:14:55;;;;;;;12.43;5.07;;;6.40;58.40;;;;;;6114272;23;20010;-51
2021/12/10 08:17:21;;;;;;;13.35;4.47;;;6.40;58.00;;;;;;6110617;23;20002;-53
2021/12/10 08:19:48;;;;;;;11.35;4.57;;;6.40;57.90;;;;;;6115409;23;20009;-52
2021/12/10 08:22:14;;;;;;;11.00;4.65;;;6.50;57.90;;;;;;6116964;23;19998;-51
2021/12/10 08:24:41;;;;;;;16.23;4.90;;;6.50;57.90;;;;;;6115793;23;20002;-54
2021/12/10 08:27:09;;;;;;;17.65;5.70;;;6.50;57.80;;;;;;6116079;23;20633;-54
2021/12/10 08:29:35;;;;;;;12.38;4.72;;;6.50;57.80;;;;;;6116487;23;20332;-50
2021/12/10 08:32:02;;;;;;;15.50;5.22;;;6.50;57.80;;;;;;6111752;23;20002;-50
2021/12/10 08:34:30;;;;;;;14.85;4.95;;;6.50;57.70;;;;;;6116884;23;20009;-51
2021/12/10 08:36:56;;;;;;;14.93;4.53;;;6.60;57.70;;;;;;6115434;23;20332;-55
2021/12/10 08:39:23;;;;;;;11.43;4.28;;;6.60;57.60;;;;;;6117029;23;20002;-52
2021/12/10 08:41:50;;;;;;;9.73;4.28;;;6.60;57.50;;;;;;6116509;23;20025;-53
2021/12/10 08:44:16;;;;;;;18.05;5.13;;;6.60;57.50;;;;;;6090075;23;20010;-54
2021/12/10 08:46:44;;;;;;;15.52;4.32;;;6.60;57.40;;;;;;6113131;23;20020;-55
2021/12/10 08:49:13;;;;;;;15.60;4.43;;;6.60;57.30;;;;;;6115661;23;19998;-51
2021/12/10 08:51:47;;;;;;;13.45;4.43;;;6.70;57.20;;;;;;6115603;23;20640;-51
2021/12/10 08:54:17;;;;;;;15.60;4.13;;;6.60;57.10;;;;;;6113051;23;20033;-56
2021/12/10 08:56:45;;;;;;;14.10;3.92;;;6.70;57.20;;;;;;6113683;23;20005;-54
2021/12/10 08:59:13;;;;;;;10.57;4.32;;;6.70;57.20;;;;;;6113535;23;20002;-54
2021/12/10 09:01:43;;;;;;;20.10;4.03;;;6.70;57.20;;;;;;6110608;23;19999;-50
2021/12/10 09:04:12;;;;;;;11.05;3.97;;;6.70;57.20;;;;;;6114359;23;20002;-55
2021/12/10 09:06:45;;;;;;;10.43;3.83;;;6.70;57.20;;;;;;6113358;23;20006;-53
2021/12/10 09:09:13;;;;;;;8.07;3.53;;;6.70;57.20;;;;;;6114695;23;20014;-54
2021/12/10 09:11:44;;;;;;;18.73;4.15;;;6.80;57.20;;;;;;6114882;23;20006;-52
2021/12/10 09:14:13;;;;;;;9.68;3.58;;;6.80;57.10;;;;;;6112559;23;19994;-52
2021/12/10 09:16:39;;;;;;;14.50;3.35;;;6.80;57.00;;;;;;6110257;23;20002;-56
2021/12/10 09:19:11;;;;;;;6.43;3.40;;;6.90;57.00;;;;;;6116335;23;19998;-55
2021/12/10 09:21:37;;;;;;;14.43;3.80;;;6.90;56.90;;;;;;6115499;23;20001;-53
2021/12/10 09:24:06;;;;;;;9.40;3.60;;;6.90;56.90;;;;;;6112536;23;20423;-55
2021/12/10 09:26:36;;;;;;;11.32;3.72;;;7.00;56.90;;;;;;6115280;23;20272;-51
2021/12/10 09:29:06;;;;;;;9.77;3.72;;;7.00;56.80;;;;;;6114043;23;20020;-55
2021/12/10 09:31:34;;;;;;;12.57;3.75;;;7.00;56.80;;;;;;6110616;23;20436;-53
2021/12/10 09:34:00;;;;;;;11.18;3.05;;;7.00;56.80;;;;;;6114786;23;19994;-52
2021/12/10 09:36:27;;;;;;;12.18;3.58;;;7.00;56.70;;;;;;6137026;23;20010;-53
2021/12/10 09:38:55;;;;;;;9.07;3.88;;;7.10;56.70;;;;;;6115101;23;20320;-53
2021/12/10 09:41:22;;;;;;;9.63;3.15;;;7.10;56.50;;;;;;6115293;23;20358;-54
2021/12/10 09:43:49;;;;;;;13.68;3.88;;;7.10;56.50;;;;;;6112934;23;19998;-53
2021/12/10 09:46:16;;;;;;;9.93;3.13;;;7.10;56.40;;;;;;6114073;23;20009;-54
2021/12/10 09:48:43;;;;;;;11.38;3.08;;;7.10;56.30;;;;;;6114554;23;20002;-55
2021/12/10 09:51:14;;;;;;;10.73;3.03;;;7.20;56.20;;;;;;6114398;23;20304;-53
2021/12/10 09:53:45;;;;;;;7.82;2.83;;;7.20;56.20;;;;;;6123851;23;20005;-53
2021/12/10 09:56:12;;;;;;;10.15;3.10;;;7.20;56.00;;;;;;6113273;23;20006;-51
2021/12/10 09:58:38;;;;;;;10.88;2.78;;;7.20;56.00;;;;;;6112849;23;20339;-54
2021/12/10 10:01:13;;;;;;;12.20;2.90;;;7.20;56.00;;;;;;6113125;23;19998;-54
2021/12/10 10:03:42;;;;;;;13.52;2.70;;;7.20;55.80;;;;;;6125044;23;20006;-49
2021/12/10 10:06:10;;;;;;;12.73;2.80;;;7.30;55.80;;;;;;6088293;23;20017;-53
2021/12/10 10:08:37;;;;;;;11.85;3.00;;;7.30;55.80;;;;;;6114803;23;20021;-56
2021/12/10 10:11:09;;;;;;;8.15;2.97;;;7.30;55.80;;;;;;6114822;23;20009;-53
2021/12/10 10:13:38;;;;;;;12.02;3.17;;;7.30;55.80;;;;;;6124306;23;20304;-53
2021/12/10 10:16:06;;;;;;;11.15;2.90;;;7.30;55.60;;;;;;6114052;23;20006;-53
2021/12/10 10:18:35;;;;;;;11.75;3.28;;;7.30;55.40;;;;;;6115690;23;20010;-53
2021/12/10 10:21:09;;;;;;;9.93;2.70;;;7.40;55.50;;;;;;6114752;23;20006;-56
2021/12/10 10:23:38;;;;;;;14.25;3.80;;;7.40;55.40;;;;;;6124157;23;20013;-53
2021/12/10 10:26:10;;;;;;;18.02;6.85;;;7.40;55.40;;;;;;6112401;23;20044;-50
2021/12/10 10:28:36;;;;;;;12.65;4.18;;;7.40;55.30;;;;;;6113037;23;20014;-52
2021/12/10 10:31:11;;;;;;;8.57;2.80;;;7.40;55.30;;;;;;6112920;23;20010;-55
2021/12/10 10:33:39;;;;;;;8.48;3.08;;;7.50;55.20;;;;;;6123636;23;20017;-53
2021/12/10 10:36:17;;;;;;;16.42;4.80;;;7.50;55.30;;;;;;6113536;23;20010;-54
2021/12/10 10:38:47;;;;;;;13.63;4.15;;;7.50;55.30;;;;;;6123988;23;20312;-53
2021/12/10 10:41:14;;;;;;;9.63;2.70;;;7.60;55.30;;;;;;6112991;23;20002;-51
2021/12/10 10:43:41;;;;;;;10.32;2.70;;;7.60;55.30;;;;;;6113130;23;19998;-54
2021/12/10 10:46:07;;;;;;;10.10;2.53;;;7.60;55.20;;;;;;6112320;23;20328;-55
2021/12/10 10:48:33;;;;;;;11.60;2.60;;;7.60;55.10;;;;;;6113823;23;20008;-56
2021/12/10 10:51:07;;;;;;;6.15;2.65;;;7.70;55.00;;;;;;6114133;23;20002;-51
2021/12/10 10:53:45;;;;;;;14.30;3.22;;;7.70;54.90;;;;;;6111650;23;20443;-55
2021/12/10 10:56:17;;;;;;;50.10;15.02;;;7.70;54.80;;;;;;6122438;23;20005;-54
2021/12/10 10:58:47;;;;;;;22.25;6.25;;;7.70;54.80;;;;;;6124160;23;19998;-53
2021/12/10 11:01:24;;;;;;;15.48;4.97;;;7.80;54.80;;;;;;6109993;23;20009;-52
2021/12/10 11:04:02;;;;;;;13.30;3.22;;;7.80;54.70;;;;;;6122793;23;20479;-53
2021/12/10 11:06:39;;;;;;;5.97;2.58;;;7.80;54.60;;;;;;6121357;23;19998;-54
2021/12/10 11:09:11;;;;;;;8.88;2.42;;;7.80;54.70;;;;;;6114907;23;20061;-53
2021/12/10 11:11:45;;;;;;;9.80;2.72;;;7.90;54.80;;;;;;6114998;23;20006;-55
2021/12/10 11:14:16;;;;;;;9.45;2.70;;;7.90;54.70;;;;;;6110892;23;19998;-54
2021/12/10 11:16:45;;;;;;;7.65;2.33;;;7.90;54.50;;;;;;6111909;23;20284;-54
2021/12/10 11:19:15;;;;;;;6.93;2.92;;;7.90;54.50;;;;;;6113066;23;20002;-52
2021/12/10 11:21:44;;;;;;;7.18;2.42;;;7.90;54.40;;;;;;6113847;23;20009;-53
2021/12/10 11:24:25;;;;;;;7.85;2.55;;;8.00;54.30;;;;;;6111382;23;20336;-54
2021/12/10 11:26:53;;;;;;;8.82;2.58;;;7.90;54.20;;;;;;6121970;23;20002;-52
2021/12/10 11:29:51;;;;;;;10.75;2.97;;;8.00;54.30;;;;;;6114634;23;20335;-54
2021/12/10 11:32:27;;;;;;;10.95;3.45;;;8.00;54.00;;;;;;6113310;23;20033;-55
2021/12/10 11:35:06;;;;;;;7.68;2.65;;;8.00;54.10;;;;;;6114172;23;20021;-53
2021/12/10 11:38:13;;;;;;;8.02;2.67;;;8.10;54.10;;;;;;6118513;23;20010;-52
2021/12/10 11:40:49;;;;;;;7.93;2.40;;;8.10;53.80;;;;;;6104316;23;20006;-50
2021/12/10 11:48:37;;;;;;;7.25;2.45;;;8.10;53.90;;;;;;6125881;23;20002;-54
2021/12/10 11:51:09;;;;;;;7.40;2.88;;;8.20;54.40;;;;;;6115163;23;20013;-55
2021/12/10 11:53:47;;;;;;;6.90;2.78;;;8.20;53.70;;;;;;6126165;23;20020;-54
2021/12/10 11:56:28;;;;;;;9.30;2.65;;;8.20;53.40;;;;;;6113406;23;19998;-54
2021/12/10 11:59:19;;;;;;;7.53;2.83;;;8.20;53.20;;;;;;6114565;23;20189;-54
2021/12/10 12:01:50;;;;;;;7.18;2.63;;;8.20;53.10;;;;;;6113072;23;20716;-51
2021/12/10 12:04:22;;;;;;;9.25;2.63;;;8.20;53.20;;;;;;6115266;23;20001;-57
2021/12/10 12:07:17;;;;;;;20.98;7.53;;;8.30;53.20;;;;;;6115332;23;20821;-52
2021/12/10 12:09:47;;;;;;;39.65;13.82;;;8.30;53.00;;;;;;6125669;23;20457;-55
2021/12/10 12:12:17;;;;;;;53.35;18.17;;;8.30;53.10;;;;;;6115399;23;20006;-54
2021/12/10 12:14:51;;;;;;;21.27;7.85;;;8.30;52.80;;;;;;6115989;23;20094;-53
2021/12/10 12:17:38;;;;;;;14.45;5.05;;;8.30;52.70;;;;;;6111759;23;20002;-52
2021/12/10 12:20:24;;;;;;;10.73;4.95;;;8.30;52.50;;;;;;6125768;23;20284;-50
2021/12/10 12:26:07;;;;;;;5.55;2.42;;;8.40;52.50;;;;;;6125015;23;20021;-57
2021/12/10 12:28:36;;;;;;;7.13;2.33;;;8.40;52.70;;;;;;6116757;23;20006;-55
2021/12/10 12:31:17;;;;;;;7.93;2.70;;;8.40;52.60;;;;;;6115999;23;20305;-51
2021/12/10 12:34:09;;;;;;;9.95;3.40;;;8.30;52.40;;;;;;6114122;23;20002;-49
2021/12/10 12:37:03;;;;;;;7.35;2.58;;;8.40;52.40;;;;;;6125732;23;19998;-55
2021/12/10 12:39:38;;;;;;;9.67;2.60;;;8.40;52.50;;;;;;6126018;23;20010;-54
2021/12/10 12:42:18;;;;;;;6.15;2.30;;;8.40;52.50;;;;;;6116057;23;20229;-55
2021/12/10 12:44:47;;;;;;;9.85;2.70;;;8.40;52.50;;;;;;6114695;23;20002;-54
2021/12/10 12:47:29;;;;;;;8.60;2.35;;;8.30;52.40;;;;;;6114651;23;20002;-54
2021/12/10 12:50:12;;;;;;;7.75;2.60;;;8.30;52.40;;;;;;6123947;23;20002;-54
2021/12/10 12:52:45;;;;;;;4.97;2.10;;;8.30;52.30;;;;;;6125982;23;19998;-53
2021/12/10 12:55:49;;;;;;;11.10;2.90;;;8.30;52.40;;;;;;6124590;23;19998;-55
2021/12/10 12:58:27;;;;;;;5.57;2.70;;;8.30;52.20;;;;;;6106542;23;20013;-53
2021/12/10 13:00:57;;;;;;;10.35;2.75;;;8.30;52.30;;;;;;6124842;23;20002;-56
2021/12/10 13:03:32;;;;;;;5.82;2.25;;;8.30;52.20;;;;;;6113267;23;20010;-53
2021/12/10 13:06:02;;;;;;;8.45;2.58;;;8.30;52.20;;;;;;6113455;23;20479;-53
2021/12/10 13:08:36;;;;;;;7.00;3.15;;;8.30;52.30;;;;;;6115851;23;20018;-54
2021/12/10 13:11:08;;;;;;;;;;;8.30;52.40;;;;;;6126592;23;20006;-53
2021/12/10 13:13:44;;;;;;;6.10;2.70;;;8.30;52.50;;;;;;6116196;23;19909;-54
2021/12/10 13:16:13;;;;;;;10.48;3.40;;;8.30;52.30;;;;;;6124089;23;19998;-54
2021/12/10 13:18:42;;;;;;;14.02;2.72;;;8.20;52.20;;;;;;6115175;23;20339;-54
2021/12/10 13:21:11;;;;;;;8.90;2.92;;;8.20;52.20;;;;;;6116025;23;20462;-53
2021/12/10 13:23:38;;;;;;;9.25;2.40;;;8.20;52.20;;;;;;6113667;23;20006;-55